sensor_id;sensor_type;location;lat;lon;timestamp;P1;durP1;ratioP1;P2;durP2;ratioP2
82703;SDS011;72427;42.000;21.464;2024-03-02T00:00:14;21.35;;;13.68;;
82703;SDS011;72427;42.000;21.464;2024-03-02T00:02:41;23.48;;;15.45;;
82703;SDS011;72427;42.000;21.464;2024-03-02T00:05:07;24.00;;;16.13;;
82703;SDS011;72427;42.000;21.464;2024-03-02T00:07:33;27.63;;;17.55;;
82703;SDS011;72427;42.000;21.464;2024-03-02T00:09:59;24.33;;;16.55;;
82703;SDS011;72427;42.000;21.464;2024-03-02T00:12:25;23.27;;;15.75;;
82703;SDS011;72427;42.000;21.464;2024-03-02T00:14:51;25.33;;;15.43;;
82703;SDS011;72427;42.000;21.464;2024-03-02T00:17:20;24.77;;;14.50;;
82703;SDS011;72427;42.000;21.464;2024-03-02T00:19:47;21.67;;;13.88;;
82703;SDS011;72427;42.000;21.464;2024-03-02T00:22:13;23.63;;;14.02;;
82703;SDS011;72427;42.000;21.464;2024-03-02T00:24:39;23.35;;;15.13;;
82703;SDS011;72427;42.000;21.464;2024-03-02T00:27:05;26.20;;;15.23;;
82703;SDS011;72427;42.000;21.464;2024-03-02T00:29:36;24.20;;;16.15;;
82703;SDS011;72427;42.000;21.464;2024-03-02T00:32:03;26.58;;;16.67;;
82703;SDS011;72427;42.000;21.464;2024-03-02T00:34:29;32.85;;;19.02;;
82703;SDS011;72427;42.000;21.464;2024-03-02T00:36:57;29.42;;;16.85;;
82703;SDS011;72427;42.000;21.464;2024-03-02T00:39:24;30.17;;;20.00;;
82703;SDS011;72427;42.000;21.464;2024-03-02T00:41:50;32.38;;;21.02;;
82703;SDS011;72427;42.000;21.464;2024-03-02T00:44:16;35.00;;;22.50;;
82703;SDS011;72427;42.000;21.464;2024-03-02T00:46:45;32.58;;;19.95;;
82703;SDS011;72427;42.000;21.464;2024-03-02T00:49:16;30.90;;;20.73;;
82703;SDS011;72427;42.000;21.464;2024-03-02T00:51:44;31.35;;;19.65;;
82703;SDS011;72427;42.000;21.464;2024-03-02T00:54:13;29.08;;;18.48;;
82703;SDS011;72427;42.000;21.464;2024-03-02T00:56:39;26.30;;;16.67;;
82703;SDS011;72427;42.000;21.464;2024-03-02T00:59:07;24.27;;;16.67;;
82703;SDS011;72427;42.000;21.464;2024-03-02T01:01:33;26.20;;;17.02;;
82703;SDS011;72427;42.000;21.464;2024-03-02T01:03:59;26.77;;;17.10;;
82703;SDS011;72427;42.000;21.464;2024-03-02T01:06:25;24.38;;;17.30;;
82703;SDS011;72427;42.000;21.464;2024-03-02T01:08:51;26.73;;;16.48;;
82703;SDS011;72427;42.000;21.464;2024-03-02T01:11:18;23.75;;;15.02;;
82703;SDS011;72427;42.000;21.464;2024-03-02T01:13:44;26.15;;;16.17;;
82703;SDS011;72427;42.000;21.464;2024-03-02T01:16:11;25.38;;;16.33;;
82703;SDS011;72427;42.000;21.464;2024-03-02T01:18:37;22.27;;;15.63;;
82703;SDS011;72427;42.000;21.464;2024-03-02T01:21:03;24.02;;;14.60;;
82703;SDS011;72427;42.000;21.464;2024-03-02T01:23:29;25.15;;;15.15;;
82703;SDS011;72427;42.000;21.464;2024-03-02T01:25:55;27.05;;;16.38;;
82703;SDS011;72427;42.000;21.464;2024-03-02T01:28:21;27.92;;;15.70;;
82703;SDS011;72427;42.000;21.464;2024-03-02T01:30:47;23.08;;;14.60;;
82703;SDS011;72427;42.000;21.464;2024-03-02T01:33:14;24.35;;;15.40;;
82703;SDS011;72427;42.000;21.464;2024-03-02T01:35:40;25.73;;;14.80;;
82703;SDS011;72427;42.000;21.464;2024-03-02T01:38:06;21.55;;;14.57;;
82703;SDS011;72427;42.000;21.464;2024-03-02T01:40:36;22.95;;;15.40;;
82703;SDS011;72427;42.000;21.464;2024-03-02T01:43:03;26.27;;;15.57;;
82703;SDS011;72427;42.000;21.464;2024-03-02T01:45:29;27.75;;;17.15;;
82703;SDS011;72427;42.000;21.464;2024-03-02T01:47:55;25.65;;;16.65;;
82703;SDS011;72427;42.000;21.464;2024-03-02T01:50:28;24.00;;;15.20;;
82703;SDS011;72427;42.000;21.464;2024-03-02T01:52:58;25.75;;;16.30;;
82703;SDS011;72427;42.000;21.464;2024-03-02T01:55:24;25.67;;;16.08;;
82703;SDS011;72427;42.000;21.464;2024-03-02T01:57:50;26.48;;;16.33;;
82703;SDS011;72427;42.000;21.464;2024-03-02T02:00:17;25.90;;;17.23;;
82703;SDS011;72427;42.000;21.464;2024-03-02T02:02:44;24.75;;;16.52;;
82703;SDS011;72427;42.000;21.464;2024-03-02T02:05:10;26.98;;;16.27;;
82703;SDS011;72427;42.000;21.464;2024-03-02T02:07:36;26.23;;;17.25;;
82703;SDS011;72427;42.000;21.464;2024-03-02T02:10:02;25.55;;;15.45;;
82703;SDS011;72427;42.000;21.464;2024-03-02T02:12:28;23.45;;;16.17;;
82703;SDS011;72427;42.000;21.464;2024-03-02T02:14:55;27.05;;;17.02;;
82703;SDS011;72427;42.000;21.464;2024-03-02T02:17:21;29.38;;;19.35;;
82703;SDS011;72427;42.000;21.464;2024-03-02T02:19:47;35.80;;;22.00;;
82703;SDS011;72427;42.000;21.464;2024-03-02T02:22:13;37.67;;;22.23;;
82703;SDS011;72427;42.000;21.464;2024-03-02T02:24:41;36.65;;;22.33;;
82703;SDS011;72427;42.000;21.464;2024-03-02T02:27:08;39.85;;;24.38;;
82703;SDS011;72427;42.000;21.464;2024-03-02T02:29:35;36.72;;;24.20;;
82703;SDS011;72427;42.000;21.464;2024-03-02T02:32:01;40.03;;;23.50;;
82703;SDS011;72427;42.000;21.464;2024-03-02T02:34:27;37.72;;;24.20;;
82703;SDS011;72427;42.000;21.464;2024-03-02T02:36:53;37.92;;;22.10;;
82703;SDS011;72427;42.000;21.464;2024-03-02T02:39:20;40.17;;;26.13;;
82703;SDS011;72427;42.000;21.464;2024-03-02T02:41:47;39.85;;;24.88;;
82703;SDS011;72427;42.000;21.464;2024-03-02T02:44:13;43.92;;;25.73;;
82703;SDS011;72427;42.000;21.464;2024-03-02T02:46:40;42.90;;;25.35;;
82703;SDS011;72427;42.000;21.464;2024-03-02T02:49:06;42.35;;;26.10;;
82703;SDS011;72427;42.000;21.464;2024-03-02T02:51:32;38.05;;;22.40;;
82703;SDS011;72427;42.000;21.464;2024-03-02T02:53:58;41.63;;;26.10;;
82703;SDS011;72427;42.000;21.464;2024-03-02T02:56:25;38.83;;;25.02;;
82703;SDS011;72427;42.000;21.464;2024-03-02T02:58:51;41.47;;;25.27;;
82703;SDS011;72427;42.000;21.464;2024-03-02T03:01:17;40.13;;;23.17;;
82703;SDS011;72427;42.000;21.464;2024-03-02T03:03:43;34.45;;;21.35;;
82703;SDS011;72427;42.000;21.464;2024-03-02T03:06:09;25.35;;;15.50;;
82703;SDS011;72427;42.000;21.464;2024-03-02T03:08:36;30.75;;;18.98;;
82703;SDS011;72427;42.000;21.464;2024-03-02T03:11:02;30.10;;;17.98;;
82703;SDS011;72427;42.000;21.464;2024-03-02T03:13:28;30.73;;;18.60;;
82703;SDS011;72427;42.000;21.464;2024-03-02T03:15:54;23.40;;;14.70;;
82703;SDS011;72427;42.000;21.464;2024-03-02T03:18:20;28.02;;;16.48;;
82703;SDS011;72427;42.000;21.464;2024-03-02T03:20:46;25.70;;;16.05;;
82703;SDS011;72427;42.000;21.464;2024-03-02T03:23:12;22.85;;;14.73;;
82703;SDS011;72427;42.000;21.464;2024-03-02T03:25:41;22.83;;;13.85;;
82703;SDS011;72427;42.000;21.464;2024-03-02T03:28:07;19.80;;;13.52;;
82703;SDS011;72427;42.000;21.464;2024-03-02T03:30:36;20.08;;;13.05;;
82703;SDS011;72427;42.000;21.464;2024-03-02T03:33:02;25.17;;;13.73;;
82703;SDS011;72427;42.000;21.464;2024-03-02T03:35:28;21.13;;;14.18;;
82703;SDS011;72427;42.000;21.464;2024-03-02T03:37:54;27.25;;;15.88;;
82703;SDS011;72427;42.000;21.464;2024-03-02T03:40:20;26.73;;;17.08;;
82703;SDS011;72427;42.000;21.464;2024-03-02T03:42:46;32.72;;;20.17;;
82703;SDS011;72427;42.000;21.464;2024-03-02T03:45:13;33.63;;;21.02;;
82703;SDS011;72427;42.000;21.464;2024-03-02T03:47:40;32.45;;;21.10;;
82703;SDS011;72427;42.000;21.464;2024-03-02T03:50:06;37.03;;;21.88;;
82703;SDS011;72427;42.000;21.464;2024-03-02T03:52:32;40.65;;;24.65;;
82703;SDS011;72427;42.000;21.464;2024-03-02T03:54:58;45.38;;;25.50;;
82703;SDS011;72427;42.000;21.464;2024-03-02T03:57:25;38.00;;;24.83;;
82703;SDS011;72427;42.000;21.464;2024-03-02T03:59:51;39.47;;;25.00;;
82703;SDS011;72427;42.000;21.464;2024-03-02T04:02:17;36.08;;;22.92;;
82703;SDS011;72427;42.000;21.464;2024-03-02T04:04:43;37.33;;;23.23;;
82703;SDS011;72427;42.000;21.464;2024-03-02T04:07:09;38.88;;;23.95;;
82703;SDS011;72427;42.000;21.464;2024-03-02T04:09:35;46.35;;;26.73;;
82703;SDS011;72427;42.000;21.464;2024-03-02T04:12:01;41.60;;;26.58;;
82703;SDS011;72427;42.000;21.464;2024-03-02T04:14:28;46.78;;;25.67;;
82703;SDS011;72427;42.000;21.464;2024-03-02T04:16:54;41.88;;;24.92;;
82703;SDS011;72427;42.000;21.464;2024-03-02T04:19:20;45.42;;;26.23;;
82703;SDS011;72427;42.000;21.464;2024-03-02T04:21:46;42.10;;;25.10;;
82703;SDS011;72427;42.000;21.464;2024-03-02T04:24:12;45.10;;;26.63;;
82703;SDS011;72427;42.000;21.464;2024-03-02T04:26:38;41.85;;;26.02;;
82703;SDS011;72427;42.000;21.464;2024-03-02T04:29:04;42.70;;;25.88;;
82703;SDS011;72427;42.000;21.464;2024-03-02T04:31:30;43.10;;;26.65;;
82703;SDS011;72427;42.000;21.464;2024-03-02T04:33:56;44.15;;;25.38;;
82703;SDS011;72427;42.000;21.464;2024-03-02T04:36:22;47.50;;;25.90;;
82703;SDS011;72427;42.000;21.464;2024-03-02T04:38:48;50.80;;;27.33;;
82703;SDS011;72427;42.000;21.464;2024-03-02T04:41:14;48.63;;;28.08;;
82703;SDS011;72427;42.000;21.464;2024-03-02T04:43:40;47.53;;;28.02;;
82703;SDS011;72427;42.000;21.464;2024-03-02T04:46:06;52.53;;;29.05;;
82703;SDS011;72427;42.000;21.464;2024-03-02T04:48:33;48.85;;;26.27;;
82703;SDS011;72427;42.000;21.464;2024-03-02T04:50:59;47.85;;;28.40;;
82703;SDS011;72427;42.000;21.464;2024-03-02T04:53:25;52.30;;;29.13;;
82703;SDS011;72427;42.000;21.464;2024-03-02T04:55:51;50.83;;;26.08;;
82703;SDS011;72427;42.000;21.464;2024-03-02T04:58:53;49.55;;;27.73;;
82703;SDS011;72427;42.000;21.464;2024-03-02T05:01:19;53.05;;;26.85;;
82703;SDS011;72427;42.000;21.464;2024-03-02T05:03:45;52.97;;;28.90;;
82703;SDS011;72427;42.000;21.464;2024-03-02T05:06:11;55.83;;;31.98;;
82703;SDS011;72427;42.000;21.464;2024-03-02T05:08:37;57.58;;;29.13;;
82703;SDS011;72427;42.000;21.464;2024-03-02T05:11:03;55.05;;;28.80;;
82703;SDS011;72427;42.000;21.464;2024-03-02T05:13:48;48.53;;;27.20;;
82703;SDS011;72427;42.000;21.464;2024-03-02T05:16:14;52.20;;;28.45;;
82703;SDS011;72427;42.000;21.464;2024-03-02T05:18:40;54.30;;;29.95;;
82703;SDS011;72427;42.000;21.464;2024-03-02T05:21:06;51.88;;;29.52;;
82703;SDS011;72427;42.000;21.464;2024-03-02T05:23:32;52.50;;;29.15;;
82703;SDS011;72427;42.000;21.464;2024-03-02T05:25:58;54.13;;;30.02;;
82703;SDS011;72427;42.000;21.464;2024-03-02T05:28:24;50.65;;;29.95;;
82703;SDS011;72427;42.000;21.464;2024-03-02T05:30:50;51.83;;;31.65;;
82703;SDS011;72427;42.000;21.464;2024-03-02T05:33:16;55.50;;;28.88;;
82703;SDS011;72427;42.000;21.464;2024-03-02T05:35:43;48.72;;;29.02;;
82703;SDS011;72427;42.000;21.464;2024-03-02T05:38:09;52.42;;;28.65;;
82703;SDS011;72427;42.000;21.464;2024-03-02T05:40:35;47.92;;;28.08;;
82703;SDS011;72427;42.000;21.464;2024-03-02T05:43:01;45.60;;;28.30;;
82703;SDS011;72427;42.000;21.464;2024-03-02T05:45:27;47.47;;;29.33;;
82703;SDS011;72427;42.000;21.464;2024-03-02T05:47:53;48.20;;;30.02;;
82703;SDS011;72427;42.000;21.464;2024-03-02T05:50:19;47.88;;;27.95;;
82703;SDS011;72427;42.000;21.464;2024-03-02T05:52:45;48.70;;;28.42;;
82703;SDS011;72427;42.000;21.464;2024-03-02T05:55:12;45.75;;;26.85;;
82703;SDS011;72427;42.000;21.464;2024-03-02T05:57:38;44.90;;;26.52;;
82703;SDS011;72427;42.000;21.464;2024-03-02T06:00:14;43.25;;;26.48;;
82703;SDS011;72427;42.000;21.464;2024-03-02T06:02:42;47.35;;;27.90;;
82703;SDS011;72427;42.000;21.464;2024-03-02T06:05:08;43.75;;;26.73;;
82703;SDS011;72427;42.000;21.464;2024-03-02T06:07:34;46.20;;;25.88;;
82703;SDS011;72427;42.000;21.464;2024-03-02T06:10:00;45.00;;;25.73;;
82703;SDS011;72427;42.000;21.464;2024-03-02T06:12:26;42.65;;;24.33;;
82703;SDS011;72427;42.000;21.464;2024-03-02T06:14:52;43.08;;;24.67;;
82703;SDS011;72427;42.000;21.464;2024-03-02T06:17:18;42.30;;;25.08;;
82703;SDS011;72427;42.000;21.464;2024-03-02T06:19:44;40.08;;;23.63;;
82703;SDS011;72427;42.000;21.464;2024-03-02T06:22:10;42.47;;;23.15;;
82703;SDS011;72427;42.000;21.464;2024-03-02T06:24:36;38.25;;;23.02;;
82703;SDS011;72427;42.000;21.464;2024-03-02T06:27:02;37.33;;;23.08;;
82703;SDS011;72427;42.000;21.464;2024-03-02T06:29:32;42.88;;;25.85;;
82703;SDS011;72427;42.000;21.464;2024-03-02T06:31:58;40.50;;;25.13;;
82703;SDS011;72427;42.000;21.464;2024-03-02T06:34:24;42.60;;;24.63;;
82703;SDS011;72427;42.000;21.464;2024-03-02T06:36:50;43.20;;;25.38;;
82703;SDS011;72427;42.000;21.464;2024-03-02T06:39:16;42.92;;;24.88;;
82703;SDS011;72427;42.000;21.464;2024-03-02T06:41:42;41.33;;;26.73;;
82703;SDS011;72427;42.000;21.464;2024-03-02T06:44:08;39.67;;;23.83;;
82703;SDS011;72427;42.000;21.464;2024-03-02T06:46:34;36.55;;;23.48;;
82703;SDS011;72427;42.000;21.464;2024-03-02T06:49:00;37.25;;;22.52;;
82703;SDS011;72427;42.000;21.464;2024-03-02T06:51:27;38.55;;;25.05;;
82703;SDS011;72427;42.000;21.464;2024-03-02T06:53:53;44.30;;;27.50;;
82703;SDS011;72427;42.000;21.464;2024-03-02T06:56:20;50.90;;;31.23;;
82703;SDS011;72427;42.000;21.464;2024-03-02T06:58:46;39.97;;;23.35;;
82703;SDS011;72427;42.000;21.464;2024-03-02T07:01:12;33.40;;;18.80;;
82703;SDS011;72427;42.000;21.464;2024-03-02T07:03:39;24.20;;;16.23;;
82703;SDS011;72427;42.000;21.464;2024-03-02T07:06:05;26.00;;;17.00;;
82703;SDS011;72427;42.000;21.464;2024-03-02T07:08:31;25.67;;;17.77;;
82703;SDS011;72427;42.000;21.464;2024-03-02T07:10:57;26.95;;;18.05;;
82703;SDS011;72427;42.000;21.464;2024-03-02T07:13:23;25.00;;;17.75;;
82703;SDS011;72427;42.000;21.464;2024-03-02T07:15:49;22.67;;;14.88;;
82703;SDS011;72427;42.000;21.464;2024-03-02T07:18:35;23.63;;;17.27;;
82703;SDS011;72427;42.000;21.464;2024-03-02T07:21:09;25.27;;;17.83;;
82703;SDS011;72427;42.000;21.464;2024-03-02T07:23:35;26.45;;;17.70;;
82703;SDS011;72427;42.000;21.464;2024-03-02T07:26:01;23.83;;;17.02;;
82703;SDS011;72427;42.000;21.464;2024-03-02T07:28:28;22.48;;;16.55;;
82703;SDS011;72427;42.000;21.464;2024-03-02T07:30:58;22.95;;;16.77;;
82703;SDS011;72427;42.000;21.464;2024-03-02T07:33:24;22.45;;;15.80;;
82703;SDS011;72427;42.000;21.464;2024-03-02T07:35:50;19.33;;;13.90;;
82703;SDS011;72427;42.000;21.464;2024-03-02T07:38:16;19.73;;;13.23;;
82703;SDS011;72427;42.000;21.464;2024-03-02T07:40:42;16.98;;;10.60;;
82703;SDS011;72427;42.000;21.464;2024-03-02T07:43:08;14.95;;;10.27;;
82703;SDS011;72427;42.000;21.464;2024-03-02T07:45:35;13.55;;;8.43;;
82703;SDS011;72427;42.000;21.464;2024-03-02T07:48:01;16.48;;;9.98;;
82703;SDS011;72427;42.000;21.464;2024-03-02T07:50:29;15.18;;;9.52;;
82703;SDS011;72427;42.000;21.464;2024-03-02T07:53:00;14.38;;;9.55;;
82703;SDS011;72427;42.000;21.464;2024-03-02T07:55:26;15.32;;;10.10;;
82703;SDS011;72427;42.000;21.464;2024-03-02T07:57:52;14.93;;;10.93;;
82703;SDS011;72427;42.000;21.464;2024-03-02T08:00:18;16.20;;;10.40;;
82703;SDS011;72427;42.000;21.464;2024-03-02T08:02:44;15.68;;;10.32;;
82703;SDS011;72427;42.000;21.464;2024-03-02T08:05:10;15.15;;;10.23;;
82703;SDS011;72427;42.000;21.464;2024-03-02T08:07:36;14.90;;;10.52;;
82703;SDS011;72427;42.000;21.464;2024-03-02T08:10:02;16.40;;;10.32;;
82703;SDS011;72427;42.000;21.464;2024-03-02T08:12:28;16.55;;;11.00;;
82703;SDS011;72427;42.000;21.464;2024-03-02T08:14:54;15.10;;;9.93;;
82703;SDS011;72427;42.000;21.464;2024-03-02T08:17:20;12.50;;;9.10;;
82703;SDS011;72427;42.000;21.464;2024-03-02T08:19:47;12.90;;;8.80;;
82703;SDS011;72427;42.000;21.464;2024-03-02T08:22:16;15.25;;;8.98;;
82703;SDS011;72427;42.000;21.464;2024-03-02T08:24:42;12.68;;;8.68;;
82703;SDS011;72427;42.000;21.464;2024-03-02T08:27:08;14.43;;;9.32;;
82703;SDS011;72427;42.000;21.464;2024-03-02T08:29:34;13.27;;;8.40;;
82703;SDS011;72427;42.000;21.464;2024-03-02T08:32:00;13.18;;;9.02;;
82703;SDS011;72427;42.000;21.464;2024-03-02T08:34:26;15.27;;;8.30;;
82703;SDS011;72427;42.000;21.464;2024-03-02T08:36:52;14.48;;;9.18;;
82703;SDS011;72427;42.000;21.464;2024-03-02T08:39:18;13.85;;;9.30;;
82703;SDS011;72427;42.000;21.464;2024-03-02T08:41:45;19.00;;;13.52;;
82703;SDS011;72427;42.000;21.464;2024-03-02T08:44:11;24.20;;;16.05;;
82703;SDS011;72427;42.000;21.464;2024-03-02T08:46:41;18.02;;;13.52;;
82703;SDS011;72427;42.000;21.464;2024-03-02T08:49:07;24.17;;;17.27;;
82703;SDS011;72427;42.000;21.464;2024-03-02T08:51:33;25.73;;;17.55;;
82703;SDS011;72427;42.000;21.464;2024-03-02T08:53:59;23.15;;;17.50;;
82703;SDS011;72427;42.000;21.464;2024-03-02T08:56:25;22.50;;;15.20;;
82703;SDS011;72427;42.000;21.464;2024-03-02T08:58:51;26.58;;;18.88;;
82703;SDS011;72427;42.000;21.464;2024-03-02T09:01:18;29.95;;;19.55;;
82703;SDS011;72427;42.000;21.464;2024-03-02T09:03:45;67.35;;;44.22;;
82703;SDS011;72427;42.000;21.464;2024-03-02T09:06:11;112.97;;;39.50;;
82703;SDS011;72427;42.000;21.464;2024-03-02T09:08:37;99.72;;;36.55;;
82703;SDS011;72427;42.000;21.464;2024-03-02T09:11:04;25.23;;;19.50;;
82703;SDS011;72427;42.000;21.464;2024-03-02T09:13:31;20.25;;;14.20;;
82703;SDS011;72427;42.000;21.464;2024-03-02T09:15:57;20.60;;;15.57;;
82703;SDS011;72427;42.000;21.464;2024-03-02T09:18:23;18.95;;;14.45;;
82703;SDS011;72427;42.000;21.464;2024-03-02T09:20:49;21.73;;;15.30;;
82703;SDS011;72427;42.000;21.464;2024-03-02T09:23:15;20.55;;;15.10;;
82703;SDS011;72427;42.000;21.464;2024-03-02T09:25:41;20.02;;;15.57;;
82703;SDS011;72427;42.000;21.464;2024-03-02T09:28:07;20.60;;;16.75;;
82703;SDS011;72427;42.000;21.464;2024-03-02T09:30:33;18.92;;;15.98;;
82703;SDS011;72427;42.000;21.464;2024-03-02T09:32:59;19.17;;;14.38;;
82703;SDS011;72427;42.000;21.464;2024-03-02T09:35:25;19.98;;;16.20;;
82703;SDS011;72427;42.000;21.464;2024-03-02T09:37:51;18.75;;;14.82;;
82703;SDS011;72427;42.000;21.464;2024-03-02T09:40:17;17.90;;;11.10;;
82703;SDS011;72427;42.000;21.464;2024-03-02T09:42:46;20.45;;;14.02;;
82703;SDS011;72427;42.000;21.464;2024-03-02T09:45:17;17.45;;;14.15;;
82703;SDS011;72427;42.000;21.464;2024-03-02T09:47:44;16.33;;;10.20;;
82703;SDS011;72427;42.000;21.464;2024-03-02T09:50:10;14.60;;;11.10;;
82703;SDS011;72427;42.000;21.464;2024-03-02T09:52:36;15.00;;;11.32;;
82703;SDS011;72427;42.000;21.464;2024-03-02T09:55:03;15.68;;;11.80;;
82703;SDS011;72427;42.000;21.464;2024-03-02T09:57:30;16.00;;;10.82;;
82703;SDS011;72427;42.000;21.464;2024-03-02T09:59:56;15.77;;;11.68;;
82703;SDS011;72427;42.000;21.464;2024-03-02T10:02:22;14.93;;;9.93;;
82703;SDS011;72427;42.000;21.464;2024-03-02T10:04:49;14.90;;;10.60;;
82703;SDS011;72427;42.000;21.464;2024-03-02T10:07:15;14.35;;;10.13;;
82703;SDS011;72427;42.000;21.464;2024-03-02T10:09:42;14.00;;;9.02;;
82703;SDS011;72427;42.000;21.464;2024-03-02T10:12:09;13.18;;;9.07;;
82703;SDS011;72427;42.000;21.464;2024-03-02T10:14:36;14.55;;;10.77;;
82703;SDS011;72427;42.000;21.464;2024-03-02T10:17:03;16.40;;;11.60;;
82703;SDS011;72427;42.000;21.464;2024-03-02T10:19:29;12.15;;;9.35;;
82703;SDS011;72427;42.000;21.464;2024-03-02T10:22:00;15.50;;;11.73;;
82703;SDS011;72427;42.000;21.464;2024-03-02T10:24:27;18.20;;;10.85;;
82703;SDS011;72427;42.000;21.464;2024-03-02T10:26:53;18.98;;;11.38;;
82703;SDS011;72427;42.000;21.464;2024-03-02T10:29:21;17.95;;;11.60;;
82703;SDS011;72427;42.000;21.464;2024-03-02T10:31:47;15.85;;;11.73;;
82703;SDS011;72427;42.000;21.464;2024-03-02T10:34:13;18.58;;;12.13;;
82703;SDS011;72427;42.000;21.464;2024-03-02T10:36:41;15.40;;;11.80;;
82703;SDS011;72427;42.000;21.464;2024-03-02T10:39:08;16.02;;;11.73;;
82703;SDS011;72427;42.000;21.464;2024-03-02T10:44:03;16.92;;;11.85;;
82703;SDS011;72427;42.000;21.464;2024-03-02T10:46:30;15.73;;;10.93;;
82703;SDS011;72427;42.000;21.464;2024-03-02T10:48:56;15.38;;;9.75;;
82703;SDS011;72427;42.000;21.464;2024-03-02T10:51:26;14.82;;;10.85;;
82703;SDS011;72427;42.000;21.464;2024-03-02T10:53:53;15.07;;;10.50;;
82703;SDS011;72427;42.000;21.464;2024-03-02T10:56:38;15.27;;;10.00;;
82703;SDS011;72427;42.000;21.464;2024-03-02T11:01:31;13.43;;;9.98;;
82703;SDS011;72427;42.000;21.464;2024-03-02T11:03:58;11.75;;;9.55;;
82703;SDS011;72427;42.000;21.464;2024-03-02T11:06:25;13.63;;;9.82;;
82703;SDS011;72427;42.000;21.464;2024-03-02T11:08:52;12.50;;;9.88;;
82703;SDS011;72427;42.000;21.464;2024-03-02T11:11:21;14.38;;;10.18;;
82703;SDS011;72427;42.000;21.464;2024-03-02T11:13:49;14.02;;;10.27;;
82703;SDS011;72427;42.000;21.464;2024-03-02T11:16:24;13.68;;;8.68;;
82703;SDS011;72427;42.000;21.464;2024-03-02T11:18:52;13.32;;;9.43;;
82703;SDS011;72427;42.000;21.464;2024-03-02T11:21:18;14.57;;;9.23;;
82703;SDS011;72427;42.000;21.464;2024-03-02T11:23:44;11.68;;;8.23;;
82703;SDS011;72427;42.000;21.464;2024-03-02T11:26:16;15.13;;;9.05;;
82703;SDS011;72427;42.000;21.464;2024-03-02T11:28:43;13.10;;;7.50;;
82703;SDS011;72427;42.000;21.464;2024-03-02T11:31:09;12.18;;;7.32;;
82703;SDS011;72427;42.000;21.464;2024-03-02T11:33:35;12.90;;;7.35;;
82703;SDS011;72427;42.000;21.464;2024-03-02T11:36:01;11.40;;;8.18;;
82703;SDS011;72427;42.000;21.464;2024-03-02T11:38:28;13.93;;;7.82;;
82703;SDS011;72427;42.000;21.464;2024-03-02T11:40:55;12.77;;;8.07;;
82703;SDS011;72427;42.000;21.464;2024-03-02T11:43:21;11.05;;;8.07;;
82703;SDS011;72427;42.000;21.464;2024-03-02T11:45:48;12.95;;;8.88;;
82703;SDS011;72427;42.000;21.464;2024-03-02T11:48:22;12.68;;;7.53;;
82703;SDS011;72427;42.000;21.464;2024-03-02T11:50:50;11.15;;;6.95;;
82703;SDS011;72427;42.000;21.464;2024-03-02T11:53:16;13.05;;;7.00;;
82703;SDS011;72427;42.000;21.464;2024-03-02T11:55:43;10.18;;;6.28;;
82703;SDS011;72427;42.000;21.464;2024-03-02T11:58:13;12.05;;;7.18;;
82703;SDS011;72427;42.000;21.464;2024-03-02T12:00:39;12.45;;;7.13;;
82703;SDS011;72427;42.000;21.464;2024-03-02T12:03:06;12.00;;;6.82;;
82703;SDS011;72427;42.000;21.464;2024-03-02T12:05:32;13.77;;;6.93;;
82703;SDS011;72427;42.000;21.464;2024-03-02T12:07:59;10.18;;;6.60;;
82703;SDS011;72427;42.000;21.464;2024-03-02T12:10:25;12.52;;;6.80;;
82703;SDS011;72427;42.000;21.464;2024-03-02T12:12:58;11.38;;;6.78;;
82703;SDS011;72427;42.000;21.464;2024-03-02T12:15:28;15.07;;;7.32;;
82703;SDS011;72427;42.000;21.464;2024-03-02T12:17:55;12.52;;;6.70;;
82703;SDS011;72427;42.000;21.464;2024-03-02T12:20:22;12.15;;;6.90;;
82703;SDS011;72427;42.000;21.464;2024-03-02T12:22:49;13.15;;;6.80;;
82703;SDS011;72427;42.000;21.464;2024-03-02T12:25:17;11.55;;;5.75;;
82703;SDS011;72427;42.000;21.464;2024-03-02T12:27:43;11.07;;;6.07;;
82703;SDS011;72427;42.000;21.464;2024-03-02T12:30:10;11.07;;;5.57;;
82703;SDS011;72427;42.000;21.464;2024-03-02T12:32:37;12.82;;;6.05;;
82703;SDS011;72427;42.000;21.464;2024-03-02T12:35:04;10.77;;;5.90;;
82703;SDS011;72427;42.000;21.464;2024-03-02T12:37:30;8.60;;;4.45;;
82703;SDS011;72427;42.000;21.464;2024-03-02T12:39:56;10.02;;;5.65;;
82703;SDS011;72427;42.000;21.464;2024-03-02T12:42:23;14.32;;;7.18;;
82703;SDS011;72427;42.000;21.464;2024-03-02T12:44:52;12.00;;;5.85;;
82703;SDS011;72427;42.000;21.464;2024-03-02T12:49:47;10.40;;;5.38;;
82703;SDS011;72427;42.000;21.464;2024-03-02T12:52:14;9.35;;;5.97;;
82703;SDS011;72427;42.000;21.464;2024-03-02T12:54:40;10.07;;;5.10;;
82703;SDS011;72427;42.000;21.464;2024-03-02T12:57:06;11.95;;;5.18;;
82703;SDS011;72427;42.000;21.464;2024-03-02T12:59:32;9.50;;;5.10;;
82703;SDS011;72427;42.000;21.464;2024-03-02T13:01:58;11.73;;;5.53;;
82703;SDS011;72427;42.000;21.464;2024-03-02T13:04:28;12.00;;;5.57;;
82703;SDS011;72427;42.000;21.464;2024-03-02T13:06:55;13.38;;;5.80;;
82703;SDS011;72427;42.000;21.464;2024-03-02T13:09:22;11.90;;;5.68;;
82703;SDS011;72427;42.000;21.464;2024-03-02T13:11:49;10.90;;;5.22;;
82703;SDS011;72427;42.000;21.464;2024-03-02T13:14:15;9.25;;;5.28;;
82703;SDS011;72427;42.000;21.464;2024-03-02T13:16:41;16.70;;;5.35;;
82703;SDS011;72427;42.000;21.464;2024-03-02T13:19:08;9.95;;;4.82;;
82703;SDS011;72427;42.000;21.464;2024-03-02T13:21:34;12.13;;;5.05;;
82703;SDS011;72427;42.000;21.464;2024-03-02T13:24:00;11.73;;;5.65;;
82703;SDS011;72427;42.000;21.464;2024-03-02T13:26:26;11.55;;;5.03;;
82703;SDS011;72427;42.000;21.464;2024-03-02T13:28:52;10.02;;;4.93;;
82703;SDS011;72427;42.000;21.464;2024-03-02T13:31:18;10.93;;;4.80;;
82703;SDS011;72427;42.000;21.464;2024-03-02T13:33:45;11.60;;;5.38;;
82703;SDS011;72427;42.000;21.464;2024-03-02T13:36:12;11.35;;;5.20;;
82703;SDS011;72427;42.000;21.464;2024-03-02T13:38:38;13.13;;;5.22;;
82703;SDS011;72427;42.000;21.464;2024-03-02T13:41:04;14.45;;;5.47;;
82703;SDS011;72427;42.000;21.464;2024-03-02T13:43:30;11.90;;;5.38;;
82703;SDS011;72427;42.000;21.464;2024-03-02T13:46:00;11.25;;;4.60;;
82703;SDS011;72427;42.000;21.464;2024-03-02T13:48:26;12.73;;;4.97;;
82703;SDS011;72427;42.000;21.464;2024-03-02T13:50:52;13.05;;;5.50;;
82703;SDS011;72427;42.000;21.464;2024-03-02T13:53:18;8.98;;;4.30;;
82703;SDS011;72427;42.000;21.464;2024-03-02T13:55:44;9.93;;;5.15;;
82703;SDS011;72427;42.000;21.464;2024-03-02T13:58:11;7.95;;;4.75;;
82703;SDS011;72427;42.000;21.464;2024-03-02T14:00:37;10.85;;;4.72;;
82703;SDS011;72427;42.000;21.464;2024-03-02T14:03:04;9.38;;;4.22;;
82703;SDS011;72427;42.000;21.464;2024-03-02T14:05:30;7.35;;;4.25;;
82703;SDS011;72427;42.000;21.464;2024-03-02T14:07:56;12.70;;;4.80;;
82703;SDS011;72427;42.000;21.464;2024-03-02T14:10:22;11.70;;;4.97;;
82703;SDS011;72427;42.000;21.464;2024-03-02T14:12:48;10.48;;;4.32;;
82703;SDS011;72427;42.000;21.464;2024-03-02T14:15:14;8.18;;;3.90;;
82703;SDS011;72427;42.000;21.464;2024-03-02T14:17:40;10.98;;;4.68;;